sensor_id;sensor_type;location;lat;lon;timestamp;P1;durP1;ratioP1;P2;durP2;ratioP2
48647;SDS011;34437;-33.956;151.076;2022-11-13T00:01:07;7.78;;;4.30;;
48647;SDS011;34437;-33.956;151.076;2022-11-13T00:03:44;9.98;;;6.32;;
48647;SDS011;34437;-33.956;151.076;2022-11-13T00:06:06;7.60;;;6.60;;
48647;SDS011;34437;-33.956;151.076;2022-11-13T00:08:30;9.68;;;6.65;;
48647;SDS011;34437;-33.956;151.076;2022-11-13T00:11:00;9.10;;;6.55;;
48647;SDS011;34437;-33.956;151.076;2022-11-13T00:13:34;17.45;;;6.93;;
48647;SDS011;34437;-33.956;151.076;2022-11-13T00:16:01;16.88;;;7.22;;
48647;SDS011;34437;-33.956;151.076;2022-11-13T00:18:26;18.77;;;6.90;;
48647;SDS011;34437;-33.956;151.076;2022-11-13T00:20:52;14.95;;;8.63;;
48647;SDS011;34437;-33.956;151.076;2022-11-13T00:23:15;13.80;;;8.98;;
48647;SDS011;34437;-33.956;151.076;2022-11-13T00:25:37;18.25;;;8.07;;
48647;SDS011;34437;-33.956;151.076;2022-11-13T00:28:00;30.88;;;9.60;;
48647;SDS011;34437;-33.956;151.076;2022-11-13T00:30:22;16.88;;;9.52;;
48647;SDS011;34437;-33.956;151.076;2022-11-13T00:32:48;16.35;;;8.93;;
48647;SDS011;34437;-33.956;151.076;2022-11-13T00:35:10;15.25;;;8.45;;
48647;SDS011;34437;-33.956;151.076;2022-11-13T00:37:33;15.68;;;8.13;;
48647;SDS011;34437;-33.956;151.076;2022-11-13T00:39:56;14.07;;;8.02;;
48647;SDS011;34437;-33.956;151.076;2022-11-13T00:42:18;9.70;;;7.88;;
48647;SDS011;34437;-33.956;151.076;2022-11-13T00:44:41;18.13;;;7.70;;
48647;SDS011;34437;-33.956;151.076;2022-11-13T00:47:03;10.75;;;6.78;;
48647;SDS011;34437;-33.956;151.076;2022-11-13T00:49:26;9.65;;;6.53;;
48647;SDS011;34437;-33.956;151.076;2022-11-13T00:51:49;10.02;;;6.43;;
48647;SDS011;34437;-33.956;151.076;2022-11-13T00:54:11;7.53;;;5.78;;
48647;SDS011;34437;-33.956;151.076;2022-11-13T00:56:34;11.00;;;5.57;;
48647;SDS011;34437;-33.956;151.076;2022-11-13T00:58:56;18.30;;;6.47;;
48647;SDS011;34437;-33.956;151.076;2022-11-13T01:01:19;8.02;;;5.88;;
48647;SDS011;34437;-33.956;151.076;2022-11-13T01:03:42;7.78;;;6.22;;
48647;SDS011;34437;-33.956;151.076;2022-11-13T01:06:09;12.07;;;6.07;;
48647;SDS011;34437;-33.956;151.076;2022-11-13T01:08:43;7.30;;;5.20;;
48647;SDS011;34437;-33.956;151.076;2022-11-13T01:11:10;11.32;;;6.35;;
48647;SDS011;34437;-33.956;151.076;2022-11-13T01:13:34;10.52;;;6.82;;
48647;SDS011;34437;-33.956;151.076;2022-11-13T01:15:57;9.82;;;8.15;;
48647;SDS011;34437;-33.956;151.076;2022-11-13T01:18:19;10.02;;;7.90;;
48647;SDS011;34437;-33.956;151.076;2022-11-13T01:20:43;8.75;;;7.82;;
48647;SDS011;34437;-33.956;151.076;2022-11-13T01:23:06;10.07;;;7.40;;
48647;SDS011;34437;-33.956;151.076;2022-11-13T01:25:29;10.60;;;7.10;;
48647;SDS011;34437;-33.956;151.076;2022-11-13T01:27:52;9.07;;;6.20;;
48647;SDS011;34437;-33.956;151.076;2022-11-13T01:30:14;9.02;;;6.68;;
48647;SDS011;34437;-33.956;151.076;2022-11-13T01:32:37;8.98;;;6.30;;
48647;SDS011;34437;-33.956;151.076;2022-11-13T01:35:00;7.95;;;5.53;;
48647;SDS011;34437;-33.956;151.076;2022-11-13T01:37:22;6.85;;;4.97;;
48647;SDS011;34437;-33.956;151.076;2022-11-13T01:39:45;7.72;;;5.30;;
48647;SDS011;34437;-33.956;151.076;2022-11-13T01:42:07;7.70;;;4.20;;
48647;SDS011;34437;-33.956;151.076;2022-11-13T01:47:22;8.93;;;4.75;;
48647;SDS011;34437;-33.956;151.076;2022-11-13T01:49:46;7.20;;;4.88;;
48647;SDS011;34437;-33.956;151.076;2022-11-13T01:52:16;7.55;;;4.15;;
48647;SDS011;34437;-33.956;151.076;2022-11-13T01:54:47;6.95;;;3.83;;
48647;SDS011;34437;-33.956;151.076;2022-11-13T01:57:16;5.13;;;3.90;;
48647;SDS011;34437;-33.956;151.076;2022-11-13T01:59:40;5.30;;;3.92;;
48647;SDS011;34437;-33.956;151.076;2022-11-13T02:02:08;5.78;;;3.72;;
48647;SDS011;34437;-33.956;151.076;2022-11-13T02:04:31;4.70;;;3.83;;
48647;SDS011;34437;-33.956;151.076;2022-11-13T02:06:55;5.82;;;3.67;;
48647;SDS011;34437;-33.956;151.076;2022-11-13T02:09:33;7.25;;;3.50;;
48647;SDS011;34437;-33.956;151.076;2022-11-13T02:11:58;10.38;;;4.18;;
48647;SDS011;34437;-33.956;151.076;2022-11-13T02:14:21;8.00;;;5.30;;
48647;SDS011;34437;-33.956;151.076;2022-11-13T02:16:48;7.43;;;5.13;;
48647;SDS011;34437;-33.956;151.076;2022-11-13T02:19:16;9.93;;;4.75;;
48647;SDS011;34437;-33.956;151.076;2022-11-13T02:21:49;17.20;;;5.20;;
48647;SDS011;34437;-33.956;151.076;2022-11-13T02:24:29;10.45;;;4.60;;
48647;SDS011;34437;-33.956;151.076;2022-11-13T02:27:05;8.80;;;4.90;;
48647;SDS011;34437;-33.956;151.076;2022-11-13T02:29:36;12.20;;;4.82;;
48647;SDS011;34437;-33.956;151.076;2022-11-13T02:31:58;7.93;;;4.82;;
48647;SDS011;34437;-33.956;151.076;2022-11-13T02:34:21;12.55;;;4.88;;
48647;SDS011;34437;-33.956;151.076;2022-11-13T02:36:43;9.55;;;3.85;;
48647;SDS011;34437;-33.956;151.076;2022-11-13T02:39:07;12.52;;;3.70;;
48647;SDS011;34437;-33.956;151.076;2022-11-13T02:41:32;6.45;;;4.00;;
48647;SDS011;34437;-33.956;151.076;2022-11-13T02:43:54;5.20;;;3.30;;
48647;SDS011;34437;-33.956;151.076;2022-11-13T02:46:17;5.63;;;3.20;;
48647;SDS011;34437;-33.956;151.076;2022-11-13T02:48:39;4.95;;;3.25;;
48647;SDS011;34437;-33.956;151.076;2022-11-13T02:51:02;3.55;;;2.60;;
48647;SDS011;34437;-33.956;151.076;2022-11-13T02:53:25;5.57;;;3.17;;
48647;SDS011;34437;-33.956;151.076;2022-11-13T02:55:48;4.00;;;2.60;;
48647;SDS011;34437;-33.956;151.076;2022-11-13T02:58:10;3.47;;;2.45;;
48647;SDS011;34437;-33.956;151.076;2022-11-13T03:00:33;6.18;;;2.45;;
48647;SDS011;34437;-33.956;151.076;2022-11-13T03:02:56;3.13;;;2.30;;
48647;SDS011;34437;-33.956;151.076;2022-11-13T03:05:18;2.88;;;2.40;;
48647;SDS011;34437;-33.956;151.076;2022-11-13T03:07:41;3.75;;;2.00;;
48647;SDS011;34437;-33.956;151.076;2022-11-13T03:10:04;3.03;;;2.17;;
48647;SDS011;34437;-33.956;151.076;2022-11-13T03:12:27;2.78;;;2.22;;
48647;SDS011;34437;-33.956;151.076;2022-11-13T03:14:49;2.88;;;2.13;;
48647;SDS011;34437;-33.956;151.076;2022-11-13T03:17:12;2.47;;;2.00;;
48647;SDS011;34437;-33.956;151.076;2022-11-13T03:19:34;2.08;;;1.75;;
48647;SDS011;34437;-33.956;151.076;2022-11-13T03:21:57;2.40;;;1.77;;
48647;SDS011;34437;-33.956;151.076;2022-11-13T03:24:20;2.15;;;1.70;;
48647;SDS011;34437;-33.956;151.076;2022-11-13T03:26:42;2.65;;;1.67;;
48647;SDS011;34437;-33.956;151.076;2022-11-13T03:29:05;2.25;;;1.63;;
48647;SDS011;34437;-33.956;151.076;2022-11-13T03:31:27;2.90;;;1.80;;
48647;SDS011;34437;-33.956;151.076;2022-11-13T03:33:53;1.80;;;1.42;;
48647;SDS011;34437;-33.956;151.076;2022-11-13T03:36:15;1.90;;;1.50;;
48647;SDS011;34437;-33.956;151.076;2022-11-13T03:38:38;2.45;;;1.55;;
48647;SDS011;34437;-33.956;151.076;2022-11-13T03:41:01;1.90;;;1.50;;
48647;SDS011;34437;-33.956;151.076;2022-11-13T03:43:24;1.97;;;1.40;;
48647;SDS011;34437;-33.956;151.076;2022-11-13T03:45:47;2.47;;;1.60;;
48647;SDS011;34437;-33.956;151.076;2022-11-13T03:48:09;1.45;;;1.20;;
48647;SDS011;34437;-33.956;151.076;2022-11-13T03:50:33;1.67;;;1.38;;
48647;SDS011;34437;-33.956;151.076;2022-11-13T03:52:56;1.80;;;1.35;;
48647;SDS011;34437;-33.956;151.076;2022-11-13T03:55:19;1.50;;;1.17;;
48647;SDS011;34437;-33.956;151.076;2022-11-13T03:57:41;2.33;;;1.65;;
48647;SDS011;34437;-33.956;151.076;2022-11-13T04:00:04;2.50;;;1.30;;
48647;SDS011;34437;-33.956;151.076;2022-11-13T04:02:27;1.67;;;1.30;;
48647;SDS011;34437;-33.956;151.076;2022-11-13T04:04:49;1.73;;;1.38;;
48647;SDS011;34437;-33.956;151.076;2022-11-13T04:07:12;2.20;;;1.33;;
48647;SDS011;34437;-33.956;151.076;2022-11-13T04:09:35;2.53;;;1.40;;
48647;SDS011;34437;-33.956;151.076;2022-11-13T04:11:57;1.58;;;1.42;;
48647;SDS011;34437;-33.956;151.076;2022-11-13T04:14:20;1.55;;;1.25;;
48647;SDS011;34437;-33.956;151.076;2022-11-13T04:16:42;1.75;;;1.15;;
48647;SDS011;34437;-33.956;151.076;2022-11-13T04:19:05;1.20;;;1.10;;
48647;SDS011;34437;-33.956;151.076;2022-11-13T04:21:27;1.70;;;1.15;;
48647;SDS011;34437;-33.956;151.076;2022-11-13T04:23:50;1.58;;;0.95;;
48647;SDS011;34437;-33.956;151.076;2022-11-13T04:26:12;2.47;;;1.10;;
48647;SDS011;34437;-33.956;151.076;2022-11-13T04:28:35;2.35;;;1.70;;
48647;SDS011;34437;-33.956;151.076;2022-11-13T04:30:57;3.97;;;1.67;;
48647;SDS011;34437;-33.956;151.076;2022-11-13T04:33:20;3.47;;;1.88;;
48647;SDS011;34437;-33.956;151.076;2022-11-13T04:35:43;3.22;;;1.98;;
48647;SDS011;34437;-33.956;151.076;2022-11-13T04:38:06;2.13;;;1.73;;
48647;SDS011;34437;-33.956;151.076;2022-11-13T04:40:28;2.75;;;1.80;;
48647;SDS011;34437;-33.956;151.076;2022-11-13T04:42:51;3.10;;;1.77;;
48647;SDS011;34437;-33.956;151.076;2022-11-13T04:45:14;3.67;;;1.77;;
48647;SDS011;34437;-33.956;151.076;2022-11-13T04:47:38;2.33;;;1.77;;
48647;SDS011;34437;-33.956;151.076;2022-11-13T04:50:01;2.13;;;1.70;;
48647;SDS011;34437;-33.956;151.076;2022-11-13T04:52:23;2.27;;;1.70;;
48647;SDS011;34437;-33.956;151.076;2022-11-13T04:54:48;2.47;;;1.80;;
48647;SDS011;34437;-33.956;151.076;2022-11-13T04:57:10;2.55;;;1.75;;
48647;SDS011;34437;-33.956;151.076;2022-11-13T04:59:33;3.90;;;1.80;;
48647;SDS011;34437;-33.956;151.076;2022-11-13T05:01:55;1.80;;;1.48;;
48647;SDS011;34437;-33.956;151.076;2022-11-13T05:04:18;2.35;;;1.70;;
48647;SDS011;34437;-33.956;151.076;2022-11-13T05:06:41;2.28;;;1.70;;
48647;SDS011;34437;-33.956;151.076;2022-11-13T05:09:03;3.30;;;1.70;;
48647;SDS011;34437;-33.956;151.076;2022-11-13T05:11:26;2.28;;;1.67;;
48647;SDS011;34437;-33.956;151.076;2022-11-13T05:13:49;2.20;;;1.60;;
48647;SDS011;34437;-33.956;151.076;2022-11-13T05:16:12;2.75;;;1.70;;
48647;SDS011;34437;-33.956;151.076;2022-11-13T05:20:57;1.88;;;1.55;;
48647;SDS011;34437;-33.956;151.076;2022-11-13T05:23:20;2.40;;;1.42;;
48647;SDS011;34437;-33.956;151.076;2022-11-13T05:25:43;2.00;;;1.58;;
48647;SDS011;34437;-33.956;151.076;2022-11-13T05:28:05;1.92;;;1.50;;
48647;SDS011;34437;-33.956;151.076;2022-11-13T05:30:28;2.17;;;1.48;;
48647;SDS011;34437;-33.956;151.076;2022-11-13T05:32:50;2.00;;;1.55;;
48647;SDS011;34437;-33.956;151.076;2022-11-13T05:35:13;2.15;;;1.67;;
48647;SDS011;34437;-33.956;151.076;2022-11-13T05:37:36;2.03;;;1.60;;
48647;SDS011;34437;-33.956;151.076;2022-11-13T05:39:58;1.70;;;1.33;;
48647;SDS011;34437;-33.956;151.076;2022-11-13T05:42:21;1.92;;;1.60;;
48647;SDS011;34437;-33.956;151.076;2022-11-13T05:44:43;1.58;;;1.40;;
48647;SDS011;34437;-33.956;151.076;2022-11-13T05:47:06;1.63;;;1.40;;
48647;SDS011;34437;-33.956;151.076;2022-11-13T05:49:28;2.38;;;1.55;;
48647;SDS011;34437;-33.956;151.076;2022-11-13T05:51:52;1.92;;;1.30;;
48647;SDS011;34437;-33.956;151.076;2022-11-13T05:54:15;2.28;;;1.50;;
48647;SDS011;34437;-33.956;151.076;2022-11-13T05:56:37;2.03;;;1.60;;
48647;SDS011;34437;-33.956;151.076;2022-11-13T05:59:00;2.25;;;1.17;;
48647;SDS011;34437;-33.956;151.076;2022-11-13T06:03:47;1.40;;;1.03;;
48647;SDS011;34437;-33.956;151.076;2022-11-13T06:06:12;1.77;;;1.48;;
48647;SDS011;34437;-33.956;151.076;2022-11-13T06:08:38;1.60;;;1.30;;
48647;SDS011;34437;-33.956;151.076;2022-11-13T06:11:05;2.17;;;1.50;;
48647;SDS011;34437;-33.956;151.076;2022-11-13T06:13:38;3.65;;;1.63;;
48647;SDS011;34437;-33.956;151.076;2022-11-13T06:18:29;2.55;;;1.33;;
48647;SDS011;34437;-33.956;151.076;2022-11-13T06:20:52;2.45;;;1.52;;
48647;SDS011;34437;-33.956;151.076;2022-11-13T06:23:15;1.90;;;1.30;;
48647;SDS011;34437;-33.956;151.076;2022-11-13T06:25:37;1.55;;;1.33;;
48647;SDS011;34437;-33.956;151.076;2022-11-13T06:28:00;3.15;;;1.50;;
48647;SDS011;34437;-33.956;151.076;2022-11-13T06:30:22;4.68;;;1.50;;
48647;SDS011;34437;-33.956;151.076;2022-11-13T06:32:50;3.13;;;1.38;;
48647;SDS011;34437;-33.956;151.076;2022-11-13T06:35:13;2.10;;;1.33;;
48647;SDS011;34437;-33.956;151.076;2022-11-13T06:37:36;1.80;;;1.13;;
48647;SDS011;34437;-33.956;151.076;2022-11-13T06:39:58;4.97;;;1.40;;
48647;SDS011;34437;-33.956;151.076;2022-11-13T06:42:21;1.95;;;0.88;;
48647;SDS011;34437;-33.956;151.076;2022-11-13T06:44:43;1.52;;;1.08;;
48647;SDS011;34437;-33.956;151.076;2022-11-13T06:47:06;1.90;;;1.00;;
48647;SDS011;34437;-33.956;151.076;2022-11-13T06:49:29;2.15;;;1.15;;
48647;SDS011;34437;-33.956;151.076;2022-11-13T06:51:51;1.60;;;1.00;;
48647;SDS011;34437;-33.956;151.076;2022-11-13T06:54:14;2.30;;;1.13;;
48647;SDS011;34437;-33.956;151.076;2022-11-13T06:56:37;2.65;;;1.20;;
48647;SDS011;34437;-33.956;151.076;2022-11-13T06:59:05;1.25;;;0.90;;
48647;SDS011;34437;-33.956;151.076;2022-11-13T07:01:27;1.05;;;0.77;;
48647;SDS011;34437;-33.956;151.076;2022-11-13T07:03:50;0.75;;;0.57;;
48647;SDS011;34437;-33.956;151.076;2022-11-13T07:06:15;1.50;;;0.90;;
48647;SDS011;34437;-33.956;151.076;2022-11-13T07:08:40;0.93;;;0.77;;
48647;SDS011;34437;-33.956;151.076;2022-11-13T07:11:03;1.88;;;0.90;;
48647;SDS011;34437;-33.956;151.076;2022-11-13T07:13:27;1.13;;;0.80;;
48647;SDS011;34437;-33.956;151.076;2022-11-13T07:15:50;0.70;;;0.60;;
48647;SDS011;34437;-33.956;151.076;2022-11-13T07:18:13;1.17;;;0.70;;
48647;SDS011;34437;-33.956;151.076;2022-11-13T07:20:36;3.67;;;0.90;;
48647;SDS011;34437;-33.956;151.076;2022-11-13T07:22:59;1.08;;;0.70;;
48647;SDS011;34437;-33.956;151.076;2022-11-13T07:25:23;0.70;;;0.60;;
48647;SDS011;34437;-33.956;151.076;2022-11-13T07:30:08;3.58;;;0.85;;
48647;SDS011;34437;-33.956;151.076;2022-11-13T07:32:32;0.73;;;0.60;;
48647;SDS011;34437;-33.956;151.076;2022-11-13T07:34:54;1.45;;;0.80;;
48647;SDS011;34437;-33.956;151.076;2022-11-13T07:37:17;1.75;;;0.68;;
48647;SDS011;34437;-33.956;151.076;2022-11-13T07:39:39;0.75;;;0.70;;
48647;SDS011;34437;-33.956;151.076;2022-11-13T07:42:02;0.82;;;0.73;;
48647;SDS011;34437;-33.956;151.076;2022-11-13T07:44:24;0.60;;;0.60;;
48647;SDS011;34437;-33.956;151.076;2022-11-13T07:46:47;1.27;;;0.77;;
48647;SDS011;34437;-33.956;151.076;2022-11-13T07:49:09;1.05;;;0.77;;
48647;SDS011;34437;-33.956;151.076;2022-11-13T07:51:32;0.80;;;0.80;;
48647;SDS011;34437;-33.956;151.076;2022-11-13T07:53:54;1.30;;;0.95;;
48647;SDS011;34437;-33.956;151.076;2022-11-13T07:56:17;1.20;;;0.70;;
48647;SDS011;34437;-33.956;151.076;2022-11-13T07:58:42;1.00;;;0.73;;
48647;SDS011;34437;-33.956;151.076;2022-11-13T08:01:05;3.72;;;1.08;;
48647;SDS011;34437;-33.956;151.076;2022-11-13T08:03:27;1.58;;;1.20;;
48647;SDS011;34437;-33.956;151.076;2022-11-13T08:05:50;1.88;;;1.33;;
48647;SDS011;34437;-33.956;151.076;2022-11-13T08:08:14;1.20;;;1.00;;
48647;SDS011;34437;-33.956;151.076;2022-11-13T08:10:38;1.15;;;1.00;;
48647;SDS011;34437;-33.956;151.076;2022-11-13T08:13:05;5.90;;;1.20;;
48647;SDS011;34437;-33.956;151.076;2022-11-13T08:15:29;1.70;;;1.10;;
48647;SDS011;34437;-33.956;151.076;2022-11-13T08:17:53;1.85;;;1.10;;
48647;SDS011;34437;-33.956;151.076;2022-11-13T08:20:17;2.95;;;1.17;;
48647;SDS011;34437;-33.956;151.076;2022-11-13T08:22:39;2.58;;;1.20;;
48647;SDS011;34437;-33.956;151.076;2022-11-13T08:25:02;2.17;;;0.90;;
48647;SDS011;34437;-33.956;151.076;2022-11-13T08:27:25;1.43;;;0.90;;
48647;SDS011;34437;-33.956;151.076;2022-11-13T08:29:48;3.22;;;1.20;;
48647;SDS011;34437;-33.956;151.076;2022-11-13T08:32:15;4.50;;;1.30;;
48647;SDS011;34437;-33.956;151.076;2022-11-13T08:34:39;1.30;;;0.90;;
48647;SDS011;34437;-33.956;151.076;2022-11-13T08:37:01;1.88;;;1.05;;
48647;SDS011;34437;-33.956;151.076;2022-11-13T08:39:24;1.10;;;0.80;;
48647;SDS011;34437;-33.956;151.076;2022-11-13T08:41:47;0.98;;;0.73;;
48647;SDS011;34437;-33.956;151.076;2022-11-13T08:44:13;0.95;;;0.77;;
48647;SDS011;34437;-33.956;151.076;2022-11-13T08:46:36;2.30;;;0.80;;
48647;SDS011;34437;-33.956;151.076;2022-11-13T08:48:58;0.77;;;0.77;;
48647;SDS011;34437;-33.956;151.076;2022-11-13T08:51:21;0.93;;;0.65;;
48647;SDS011;34437;-33.956;151.076;2022-11-13T08:53:43;1.05;;;0.60;;
48647;SDS011;34437;-33.956;151.076;2022-11-13T08:56:06;0.65;;;0.60;;
48647;SDS011;34437;-33.956;151.076;2022-11-13T08:58:28;1.25;;;0.73;;
48647;SDS011;34437;-33.956;151.076;2022-11-13T09:00:51;0.70;;;0.60;;
48647;SDS011;34437;-33.956;151.076;2022-11-13T09:03:14;1.00;;;0.70;;
48647;SDS011;34437;-33.956;151.076;2022-11-13T09:05:36;0.88;;;0.60;;
48647;SDS011;34437;-33.956;151.076;2022-11-13T09:07:59;1.27;;;0.75;;
48647;SDS011;34437;-33.956;151.076;2022-11-13T09:10:22;1.70;;;0.57;;
48647;SDS011;34437;-33.956;151.076;2022-11-13T09:12:45;2.20;;;0.60;;
48647;SDS011;34437;-33.956;151.076;2022-11-13T09:15:08;0.98;;;0.70;;
48647;SDS011;34437;-33.956;151.076;2022-11-13T09:17:31;0.73;;;0.60;;
48647;SDS011;34437;-33.956;151.076;2022-11-13T09:19:54;0.60;;;0.60;;
48647;SDS011;34437;-33.956;151.076;2022-11-13T09:22:16;1.15;;;0.75;;
48647;SDS011;34437;-33.956;151.076;2022-11-13T09:24:39;0.93;;;0.50;;
48647;SDS011;34437;-33.956;151.076;2022-11-13T09:27:05;1.05;;;0.73;;
48647;SDS011;34437;-33.956;151.076;2022-11-13T09:29:28;0.90;;;0.70;;
48647;SDS011;34437;-33.956;151.076;2022-11-13T09:31:51;2.17;;;0.75;;
48647;SDS011;34437;-33.956;151.076;2022-11-13T09:34:13;2.03;;;0.77;;
48647;SDS011;34437;-33.956;151.076;2022-11-13T09:36:36;0.75;;;0.63;;
48647;SDS011;34437;-33.956;151.076;2022-11-13T09:38:58;2.10;;;0.60;;
48647;SDS011;34437;-33.956;151.076;2022-11-13T09:41:25;2.13;;;0.82;;
48647;SDS011;34437;-33.956;151.076;2022-11-13T09:43:52;0.80;;;0.65;;
48647;SDS011;34437;-33.956;151.076;2022-11-13T09:51:35;0.73;;;0.50;;
48647;SDS011;34437;-33.956;151.076;2022-11-13T09:53:59;0.57;;;0.50;;
48647;SDS011;34437;-33.956;151.076;2022-11-13T09:56:34;0.93;;;0.60;;
48647;SDS011;34437;-33.956;151.076;2022-11-13T10:04:31;0.95;;;0.60;;
48647;SDS011;34437;-33.956;151.076;2022-11-13T10:07:17;1.50;;;0.80;;
48647;SDS011;34437;-33.956;151.076;2022-11-13T10:12:40;0.57;;;0.47;;
48647;SDS011;34437;-33.956;151.076;2022-11-13T10:15:04;1.42;;;0.68;;
48647;SDS011;34437;-33.956;151.076;2022-11-13T10:17:39;1.08;;;0.70;;
48647;SDS011;34437;-33.956;151.076;2022-11-13T10:23:34;0.75;;;0.50;;
48647;SDS011;34437;-33.956;151.076;2022-11-13T10:25:41;1.85;;;0.80;;
48647;SDS011;34437;-33.956;151.076;2022-11-13T10:28:11;0.50;;;0.47;;
48647;SDS011;34437;-33.956;151.076;2022-11-13T10:30:43;0.50;;;0.50;;
48647;SDS011;34437;-33.956;151.076;2022-11-13T10:33:07;1.45;;;0.55;;
48647;SDS011;34437;-33.956;151.076;2022-11-13T10:35:45;1.20;;;0.70;;
48647;SDS011;34437;-33.956;151.076;2022-11-13T10:41:29;1.38;;;0.60;;
48647;SDS011;34437;-33.956;151.076;2022-11-13T10:44:05;0.60;;;0.60;;
48647;SDS011;34437;-33.956;151.076;2022-11-13T10:46:40;0.85;;;0.68;;
48647;SDS011;34437;-33.956;151.076;2022-11-13T10:49:18;1.45;;;0.80;;
48647;SDS011;34437;-33.956;151.076;2022-11-13T10:51:55;2.15;;;0.73;;
48647;SDS011;34437;-33.956;151.076;2022-11-13T10:54:28;2.42;;;0.80;;
48647;SDS011;34437;-33.956;151.076;2022-11-13T10:57:00;1.50;;;0.63;;
48647;SDS011;34437;-33.956;151.076;2022-11-13T10:59:25;0.80;;;0.70;;
48647;SDS011;34437;-33.956;151.076;2022-11-13T11:02:06;0.90;;;0.80;;
48647;SDS011;34437;-33.956;151.076;2022-11-13T11:04:39;1.33;;;1.10;;
48647;SDS011;34437;-33.956;151.076;2022-11-13T11:07:16;0.60;;;0.60;;
48647;SDS011;34437;-33.956;151.076;2022-11-13T11:09:40;1.15;;;0.70;;
48647;SDS011;34437;-33.956;151.076;2022-11-13T11:12:16;1.35;;;0.82;;
48647;SDS011;34437;-33.956;151.076;2022-11-13T11:17:19;1.63;;;0.60;;
48647;SDS011;34437;-33.956;151.076;2022-11-13T11:20:05;0.95;;;0.63;;
48647;SDS011;34437;-33.956;151.076;2022-11-13T11:22:35;1.48;;;0.90;;
48647;SDS011;34437;-33.956;151.076;2022-11-13T11:27:40;1.08;;;0.77;;
48647;SDS011;34437;-33.956;151.076;2022-11-13T11:30:15;0.75;;;0.60;;
48647;SDS011;34437;-33.956;151.076;2022-11-13T11:32:48;0.98;;;0.70;;
48647;SDS011;34437;-33.956;151.076;2022-11-13T11:41:53;1.13;;;0.80;;
48647;SDS011;34437;-33.956;151.076;2022-11-13T11:44:27;1.27;;;0.80;;
48647;SDS011;34437;-33.956;151.076;2022-11-13T11:46:59;1.02;;;0.70;;
48647;SDS011;34437;-33.956;151.076;2022-11-13T11:49:22;0.85;;;0.75;;
48647;SDS011;34437;-33.956;151.076;2022-11-13T12:00:17;0.90;;;0.70;;
48647;SDS011;34437;-33.956;151.076;2022-11-13T12:11:26;1.17;;;0.80;;
48647;SDS011;34437;-33.956;151.076;2022-11-13T12:13:58;0.82;;;0.70;;
48647;SDS011;34437;-33.956;151.076;2022-11-13T12:19:10;2.38;;;0.73;;
48647;SDS011;34437;-33.956;151.076;2022-11-13T12:21:49;0.65;;;0.60;;
48647;SDS011;34437;-33.956;151.076;2022-11-13T12:32:45;5.30;;;1.10;;
48647;SDS011;34437;-33.956;151.076;2022-11-13T12:35:20;5.38;;;1.75;;
48647;SDS011;34437;-33.956;151.076;2022-11-13T12:40:21;5.05;;;1.23;;
48647;SDS011;34437;-33.956;151.076;2022-11-13T12:45:47;2.17;;;0.95;;
48647;SDS011;34437;-33.956;151.076;2022-11-13T12:50:40;1.05;;;0.73;;
48647;SDS011;34437;-33.956;151.076;2022-11-13T12:53:05;2.33;;;0.82;;
48647;SDS011;34437;-33.956;151.076;2022-11-13T12:55:33;2.00;;;0.80;;
48647;SDS011;34437;-33.956;151.076;2022-11-13T13:00:38;1.58;;;1.00;;
48647;SDS011;34437;-33.956;151.076;2022-11-13T13:11:42;3.13;;;1.10;;
48647;SDS011;34437;-33.956;151.076;2022-11-13T13:19:56;1.60;;;0.93;;
48647;SDS011;34437;-33.956;151.076;2022-11-13T13:22:30;4.10;;;0.88;;
48647;SDS011;34437;-33.956;151.076;2022-11-13T13:24:59;1.77;;;0.80;;
48647;SDS011;34437;-33.956;151.076;2022-11-13T13:27:28;1.45;;;1.00;;
48647;SDS011;34437;-33.956;151.076;2022-11-13T13:29:54;2.15;;;0.98;;
48647;SDS011;34437;-33.956;151.076;2022-11-13T13:32:24;1.38;;;0.80;;
48647;SDS011;34437;-33.956;151.076;2022-11-13T13:36:09;4.70;;;1.20;;
48647;SDS011;34437;-33.956;151.076;2022-11-13T13:38:19;4.47;;;1.10;;
48647;SDS011;34437;-33.956;151.076;2022-11-13T13:46:35;4.45;;;1.33;;
48647;SDS011;34437;-33.956;151.076;2022-11-13T13:49:02;3.92;;;1.30;;
48647;SDS011;34437;-33.956;151.076;2022-11-13T13:51:36;3.38;;;1.30;;
48647;SDS011;34437;-33.956;151.076;2022-11-13T13:54:17;1.40;;;1.10;;
48647;SDS011;34437;-33.956;151.076;2022-11-13T13:56:48;1.05;;;0.95;;
48647;SDS011;34437;-33.956;151.076;2022-11-13T13:59:18;3.38;;;1.40;;
48647;SDS011;34437;-33.956;151.076;2022-11-13T14:01:51;4.78;;;1.23;;
48647;SDS011;34437;-33.956;151.076;2022-11-13T14:04:20;1.63;;;0.98;;
48647;SDS011;34437;-33.956;151.076;2022-11-13T14:06:51;7.28;;;1.13;;
48647;SDS011;34437;-33.956;151.076;2022-11-13T14:09:25;3.88;;;1.10;;
48647;SDS011;34437;-33.956;151.076;2022-11-13T14:11:55;1.60;;;1.00;;
48647;SDS011;34437;-33.956;151.076;2022-11-13T14:14:27;1.15;;;1.05;;
48647;SDS011;34437;-33.956;151.076;2022-11-13T14:16:50;2.88;;;1.10;;
48647;SDS011;34437;-33.956;151.076;2022-11-13T14:19:14;1.77;;;1.25;;
48647;SDS011;34437;-33.956;151.076;2022-11-13T14:21:36;4.80;;;1.40;;
48647;SDS011;34437;-33.956;151.076;2022-11-13T14:23:59;2.10;;;1.55;;
48647;SDS011;34437;-33.956;151.076;2022-11-13T14:26:23;2.15;;;1.20;;
48647;SDS011;34437;-33.956;151.076;2022-11-13T14:28:56;1.10;;;1.00;;
48647;SDS011;34437;-33.956;151.076;2022-11-13T14:31:26;2.00;;;1.30;;
48647;SDS011;34437;-33.956;151.076;2022-11-13T14:33:52;1.65;;;1.23;;
48647;SDS011;34437;-33.956;151.076;2022-11-13T14:36:15;2.83;;;1.53;;
48647;SDS011;34437;-33.956;151.076;2022-11-13T14:38:51;2.22;;;1.10;;
48647;SDS011;34437;-33.956;151.076;2022-11-13T14:41:19;1.60;;;1.27;;
48647;SDS011;34437;-33.956;151.076;2022-11-13T14:43:49;2.75;;;1.50;;
48647;SDS011;34437;-33.956;151.076;2022-11-13T14:46:27;1.63;;;0.90;;
48647;SDS011;34437;-33.956;151.076;2022-11-13T14:48:57;4.22;;;1.15;;
48647;SDS011;34437;-33.956;151.076;2022-11-13T14:51:24;1.30;;;1.00;;
48647;SDS011;34437;-33.956;151.076;2022-11-13T14:53:54;1.63;;;1.10;;
48647;SDS011;34437;-33.956;151.076;2022-11-13T14:56:37;3.22;;;1.50;;
48647;SDS011;34437;-33.956;151.076;2022-11-13T14:59:24;2.88;;;1.20;;
48647;SDS011;34437;-33.956;151.076;2022-11-13T16:33:13;0.85;;;0.50;;
48647;SDS011;34437;-33.956;151.076;2022-11-13T16:35:36;1.50;;;0.40;;
48647;SDS011;34437;-33.956;151.076;2022-11-13T16:37:59;1.63;;;0.60;;
48647;SDS011;34437;-33.956;151.076;2022-11-13T16:40:23;0.82;;;0.40;;
48647;SDS011;34437;-33.956;151.076;2022-11-13T16:42:47;1.02;;;0.50;;
48647;SDS011;34437;-33.956;151.076;2022-11-13T16:45:09;1.08;;;0.60;;
48647;SDS011;34437;-33.956;151.076;2022-11-13T16:47:32;0.63;;;0.40;;
48647;SDS011;34437;-33.956;151.076;2022-11-13T16:49:54;3.70;;;0.60;;
48647;SDS011;34437;-33.956;151.076;2022-11-13T16:52:20;2.47;;;0.93;;
48647;SDS011;34437;-33.956;151.076;2022-11-13T16:54:43;2.58;;;0.57;;
48647;SDS011;34437;-33.956;151.076;2022-11-13T16:57:14;2.67;;;0.50;;
48647;SDS011;34437;-33.956;151.076;2022-11-13T16:59:37;2.28;;;0.77;;
48647;SDS011;34437;-33.956;151.076;2022-11-13T17:02:00;0.75;;;0.50;;
48647;SDS011;34437;-33.956;151.076;2022-11-13T17:04:22;1.70;;;0.38;;
48647;SDS011;34437;-33.956;151.076;2022-11-13T17:06:45;1.30;;;0.43;;
48647;SDS011;34437;-33.956;151.076;2022-11-13T17:09:08;2.47;;;0.43;;
48647;SDS011;34437;-33.956;151.076;2022-11-13T17:11:31;1.67;;;0.63;;
48647;SDS011;34437;-33.956;151.076;2022-11-13T17:13:54;0.87;;;0.40;;